Terminal Aerodrome Forecast
Issued by NWS Wilmington, OH

Current Version | Previous Version | Text Only | Print | Product List | Glossary Off
Versions: 1 2 3 4 5 6 7 8 9 10 11 12 13 14 15 16 17 18 19 20 21 22 23 24 25

000
FTUS41 KILN 211446 AAB
TAFCMH
TAF AMD
KCMH 211446Z 2115/2212 31010KT P6SM -RA SCT030 BKN050 OVC100
      TEMPO 2115/2116 30012G18KT 5SM -RA BKN030
     FM212100 14004KT P6SM FEW035 SCT250
     FM220100 VRB03KT P6SM BKN050=

USA.gov is the U.S. government's official web portal to all federal, state and local government web resources and services.